Terminal Aerodrome Forecast
Issued by NWS Lake Charles, LA

Home | Current Version | Previous Version | Text Only | Print | Product List | Glossary On
Versions: 1 2 3 4 5 6 7 8 9 10 11 12 13 14 15 16
000
FTUS44 KLCH 300500
TAFLFT
TAF
KLFT 300520Z 3006/3106 12005KT P6SM -RA SCT025 OVC120
      TEMPO 3006/3010 4SM -SHRA BR SCT025 BKN040
     FM301000 11003KT 4SM -SHRA SCT025 BKN040
     FM301800 19009KT P6SM VCTS BKN025CB PROB30 3018/3024 4SM -TSRA=

USA.gov is the U.S. government's official web portal to all federal, state and local government web resources and services.